San Patricio — WCX6675 — position and weather

sailwx.info

Track history (hours):
 
Tides and Currents Weather Stations Pressure Air Temp Water Temp Dewpoint Dewpoint Depression Visibility Wind Speed Wind Dir Waves Ship Positions

San Patricio

Owner: BUFFALO MARINE SERVICE INC, HOUSTON, TX. More information available from US FCC via Universal Licensing System and Coast Guard Vessel Documentation Center.

Last reported at 2018-Jun-22 06:10 UTC. Time now 2018-Jun-22 07:20 UTC.
Position N 29°43' W 095°17'.

Length 30 m; draft 3.1 m.

Type: Tug. MMSI: 366941830.

Date/timePositionNaut miles runAvg speedWind from/ knotsBaromVisibWave heightAir tempDewpointWater temp
2018-Jun-22 06:10N 29°43' W 095°17'0 0.0
2018-Jun-22 05:55N 29°43' W 095°17'0 0.0
2018-Jun-22 05:31N 29°43' W 095°17'0 0.0
2018-Jun-22 04:42N 29°43' W 095°17'0 0.0
2018-Jun-22 04:23N 29°43' W 095°17'8 0.4
2018-Jun-21 05:57N 29°44' W 095°07'1 1.9
2018-Jun-21 05:10N 29°45' W 095°06'5 0.3
2018-Jun-20 12:59N 29°42' W 095°01'2 3.4
2018-Jun-20 12:31N 29°41' W 094°60'0 0.2
2018-Jun-20 11:53N 29°41' W 095°00'0 0.0
2018-Jun-20 11:19N 29°41' W 095°00'0 0.0
2018-Jun-20 10:41N 29°41' W 095°00'0 0.0
2018-Jun-20 09:21N 29°41' W 095°00'0 0.0
2018-Jun-20 08:58N 29°41' W 095°00'0 0.0
2018-Jun-20 08:30N 29°41' W 095°00'0 0.0
2018-Jun-20 08:01N 29°41' W 095°00'0 0.0
2018-Jun-20 07:26N 29°41' W 095°00'0 0.0
2018-Jun-20 07:00N 29°41' W 095°00'0 0.0
2018-Jun-20 06:29N 29°41' W 095°00'0 0.0
2018-Jun-20 04:39N 29°41' W 095°00'0 0.0
2018-Jun-20 04:29N 29°41' W 095°00'0 0.0
2018-Jun-20 03:38N 29°41' W 095°00'0 0.0
2018-Jun-20 03:28N 29°41' W 095°00'0 0.0
2018-Jun-20 03:00N 29°41' W 095°00'0 0.0
2018-Jun-20 02:28N 29°41' W 095°00'0 0.0
2018-Jun-20 02:00N 29°41' W 095°00'0 0.1
2018-Jun-20 01:31N 29°41' W 095°00'0 0.0
2018-Jun-20 00:55N 29°41' W 095°00'0 0.1
2018-Jun-20 00:30N 29°41' W 095°00'  
2018-Jun-17 07:06N 29°44' W 095°02'2 6.3
2018-Jun-17 06:51N 29°42' W 095°01'2 5.6
2018-Jun-17 06:30N 29°41' W 094°59'0 0.9
2018-Jun-17 06:00N 29°41' W 094°60'0 0.0
2018-Jun-17 05:30N 29°41' W 094°60'0 0.0
2018-Jun-17 05:00N 29°41' W 094°60'0 0.0
2018-Jun-17 04:29N 29°41' W 094°60'0 0.0
2018-Jun-17 04:00N 29°41' W 094°60'0 0.0
2018-Jun-17 03:25N 29°41' W 094°60'0 0.0
2018-Jun-17 02:11N 29°41' W 094°60'0 0.0
2018-Jun-17 01:54N 29°41' W 094°60'0 0.1
2018-Jun-17 01:30N 29°41' W 094°60'0 0.1
2018-Jun-17 01:00N 29°41' W 094°60'2 0.1
2018-Jun-16 03:04N 29°42' W 095°01'2 6.8
2018-Jun-16 02:50N 29°42' W 094°59'2 6.5
2018-Jun-16 02:28N 29°39' W 094°58'4 6.6
2018-Jun-16 01:53N 29°36' W 094°57'3 6.8
2018-Jun-16 01:28N 29°34' W 094°55'4 7.0
2018-Jun-16 00:57N 29°30' W 094°53'3 7.0
2018-Jun-16 00:28N 29°27' W 094°51'3 6.9
2018-Jun-16 00:00N 29°24' W 094°49'3 5.7
2018-Jun-15 23:30N 29°22' W 094°49'4 7.2
2018-Jun-15 23:00N 29°23' W 094°53'1 3.0
2018-Jun-15 22:30N 29°22' W 094°54'0 0.0
2018-Jun-15 22:00N 29°22' W 094°54'0 0.0
2018-Jun-15 21:22N 29°22' W 094°54'0 0.0
2018-Jun-15 20:52N 29°22' W 094°54'0 0.0
2018-Jun-15 20:30N 29°22' W 094°54'0 0.0
2018-Jun-15 20:00N 29°22' W 094°54'0 0.0
2018-Jun-15 19:30N 29°22' W 094°54'0 0.0
2018-Jun-15 19:00N 29°22' W 094°54'0 0.0
2018-Jun-15 18:30N 29°22' W 094°54'0 0.0
2018-Jun-15 18:00N 29°22' W 094°54'0 0.0
2018-Jun-15 17:25N 29°22' W 094°54'0 0.0
2018-Jun-15 17:00N 29°22' W 094°54'0 0.2
2018-Jun-15 16:30N 29°22' W 094°54'0 0.0
2018-Jun-15 15:53N 29°22' W 094°54'0 0.0
2018-Jun-15 14:59N 29°22' W 094°54'0 0.1
2018-Jun-15 14:30N 29°22' W 094°54'0 0.0
2018-Jun-15 14:00N 29°22' W 094°54'0 0.7
2018-Jun-15 13:30N 29°22' W 094°54'1 1.1
2018-Jun-15 13:00N 29°22' W 094°54'1 2.1
2018-Jun-15 12:30N 29°23' W 094°53'3 6.9
2018-Jun-15 12:00N 29°22' W 094°49'1 2.2
2018-Jun-15 11:25N 29°23' W 094°49'10 5.1
2018-Jun-15 09:29N 29°32' W 094°54'3 6.6
2018-Jun-15 09:00N 29°35' W 094°56'4 7.1
2018-Jun-15 08:28N 29°38' W 094°58'3 7.0
2018-Jun-15 07:59N 29°41' W 094°59'7 2.8
2018-Jun-15 05:28N 29°45' W 095°06'0 0.0
2018-Jun-15 02:19N 29°45' W 095°06'0 0.0
2018-Jun-13 06:07N 29°45' W 095°06'0 0.0
2018-Jun-13 05:14N 29°45' W 095°06'0 1.0
2018-Jun-13 04:53N 29°45' W 095°06'0 0.1
2018-Jun-13 04:00N 29°45' W 095°07'  
Track history (hours):
 
Tides and Currents Weather Stations Pressure Air Temp Water Temp Dewpoint Dewpoint Depression Visibility Wind Speed Wind Dir Waves Ship Positions

San Patricio

Owner: BUFFALO MARINE SERVICE INC, HOUSTON, TX. More information available from US FCC via Universal Licensing System and Coast Guard Vessel Documentation Center.

Last reported at 2018-Jun-22 06:10 UTC. Time now 2018-Jun-22 07:20 UTC.
Position N 29°43' W 095°17'.

Length 30 m; draft 3.1 m.

Type: Tug. MMSI: 366941830.

Date/timePositionNaut miles runAvg speedWind from/ knotsBaromVisibWave heightAir tempDewpointWater temp
2018-Jun-22 06:10N 29°43' W 095°17'0 0.0
2018-Jun-22 05:55N 29°43' W 095°17'0 0.0
2018-Jun-22 05:31N 29°43' W 095°17'0 0.0
2018-Jun-22 04:42N 29°43' W 095°17'0 0.0
2018-Jun-22 04:23N 29°43' W 095°17'8 0.4
2018-Jun-21 05:57N 29°44' W 095°07'1 1.9
2018-Jun-21 05:10N 29°45' W 095°06'5 0.3
2018-Jun-20 12:59N 29°42' W 095°01'2 3.4
2018-Jun-20 12:31N 29°41' W 094°60'0 0.2
2018-Jun-20 11:53N 29°41' W 095°00'0 0.0
2018-Jun-20 11:19N 29°41' W 095°00'0 0.0
2018-Jun-20 10:41N 29°41' W 095°00'0 0.0
2018-Jun-20 09:21N 29°41' W 095°00'0 0.0
2018-Jun-20 08:58N 29°41' W 095°00'0 0.0
2018-Jun-20 08:30N 29°41' W 095°00'0 0.0
2018-Jun-20 08:01N 29°41' W 095°00'0 0.0
2018-Jun-20 07:26N 29°41' W 095°00'0 0.0
2018-Jun-20 07:00N 29°41' W 095°00'0 0.0
2018-Jun-20 06:29N 29°41' W 095°00'0 0.0
2018-Jun-20 04:39N 29°41' W 095°00'0 0.0
2018-Jun-20 04:29N 29°41' W 095°00'0 0.0
2018-Jun-20 03:38N 29°41' W 095°00'0 0.0
2018-Jun-20 03:28N 29°41' W 095°00'0 0.0
2018-Jun-20 03:00N 29°41' W 095°00'0 0.0
2018-Jun-20 02:28N 29°41' W 095°00'0 0.0
2018-Jun-20 02:00N 29°41' W 095°00'0 0.1
2018-Jun-20 01:31N 29°41' W 095°00'0 0.0
2018-Jun-20 00:55N 29°41' W 095°00'0 0.1
2018-Jun-20 00:30N 29°41' W 095°00'  
2018-Jun-17 07:06N 29°44' W 095°02'2 6.3
2018-Jun-17 06:51N 29°42' W 095°01'2 5.6
2018-Jun-17 06:30N 29°41' W 094°59'0 0.9
2018-Jun-17 06:00N 29°41' W 094°60'0 0.0
2018-Jun-17 05:30N 29°41' W 094°60'0 0.0
2018-Jun-17 05:00N 29°41' W 094°60'0 0.0
2018-Jun-17 04:29N 29°41' W 094°60'0 0.0
2018-Jun-17 04:00N 29°41' W 094°60'0 0.0
2018-Jun-17 03:25N 29°41' W 094°60'0 0.0
2018-Jun-17 02:11N 29°41' W 094°60'0 0.0
2018-Jun-17 01:54N 29°41' W 094°60'0 0.1
2018-Jun-17 01:30N 29°41' W 094°60'0 0.1
2018-Jun-17 01:00N 29°41' W 094°60'2 0.1
2018-Jun-16 03:04N 29°42' W 095°01'2 6.8
2018-Jun-16 02:50N 29°42' W 094°59'2 6.5
2018-Jun-16 02:28N 29°39' W 094°58'4 6.6
2018-Jun-16 01:53N 29°36' W 094°57'3 6.8
2018-Jun-16 01:28N 29°34' W 094°55'4 7.0
2018-Jun-16 00:57N 29°30' W 094°53'3 7.0
2018-Jun-16 00:28N 29°27' W 094°51'3 6.9
2018-Jun-16 00:00N 29°24' W 094°49'3 5.7
2018-Jun-15 23:30N 29°22' W 094°49'4 7.2
2018-Jun-15 23:00N 29°23' W 094°53'1 3.0
2018-Jun-15 22:30N 29°22' W 094°54'0 0.0
2018-Jun-15 22:00N 29°22' W 094°54'0 0.0
2018-Jun-15 21:22N 29°22' W 094°54'0 0.0
2018-Jun-15 20:52N 29°22' W 094°54'0 0.0
2018-Jun-15 20:30N 29°22' W 094°54'0 0.0
2018-Jun-15 20:00N 29°22' W 094°54'0 0.0
2018-Jun-15 19:30N 29°22' W 094°54'0 0.0
2018-Jun-15 19:00N 29°22' W 094°54'0 0.0
2018-Jun-15 18:30N 29°22' W 094°54'0 0.0
2018-Jun-15 18:00N 29°22' W 094°54'0 0.0
2018-Jun-15 17:25N 29°22' W 094°54'0 0.0
2018-Jun-15 17:00N 29°22' W 094°54'0 0.2
2018-Jun-15 16:30N 29°22' W 094°54'0 0.0
2018-Jun-15 15:53N 29°22' W 094°54'0 0.0
2018-Jun-15 14:59N 29°22' W 094°54'0 0.1
2018-Jun-15 14:30N 29°22' W 094°54'0 0.0
2018-Jun-15 14:00N 29°22' W 094°54'0 0.7
2018-Jun-15 13:30N 29°22' W 094°54'1 1.1
2018-Jun-15 13:00N 29°22' W 094°54'1 2.1
2018-Jun-15 12:30N 29°23' W 094°53'3 6.9
2018-Jun-15 12:00N 29°22' W 094°49'1 2.2
2018-Jun-15 11:25N 29°23' W 094°49'10 5.1
2018-Jun-15 09:29N 29°32' W 094°54'3 6.6
2018-Jun-15 09:00N 29°35' W 094°56'4 7.1
2018-Jun-15 08:28N 29°38' W 094°58'3 7.0
2018-Jun-15 07:59N 29°41' W 094°59'7 2.8
2018-Jun-15 05:28N 29°45' W 095°06'0 0.0
2018-Jun-15 02:19N 29°45' W 095°06'0 0.0
2018-Jun-13 06:07N 29°45' W 095°06'0 0.0
2018-Jun-13 05:14N 29°45' W 095°06'0 1.0
2018-Jun-13 04:53N 29°45' W 095°06'0 0.1
2018-Jun-13 04:00N 29°45' W 095°07'  

Dump ship's entire track history